createdAt,value
2019-06-27T00:00:45.226Z,22.69
2019-06-27T00:03:12.708Z,22.08
2019-06-27T00:05:40.183Z,21.92
2019-06-27T00:08:07.649Z,23.00
2019-06-27T00:10:35.109Z,22.54
2019-06-27T00:13:03.254Z,22.76
2019-06-27T00:15:30.729Z,22.18
2019-06-27T00:17:58.182Z,21.89
2019-06-27T00:20:25.629Z,21.65
2019-06-27T00:22:53.123Z,22.86
2019-06-27T00:25:20.593Z,22.95
2019-06-27T00:27:48.013Z,23.18
2019-06-27T00:30:15.935Z,22.79
2019-06-27T00:32:43.408Z,22.70
2019-06-27T00:35:11.008Z,21.54
2019-06-27T00:37:38.406Z,22.24
2019-06-27T00:40:06.126Z,22.86
2019-06-27T00:42:33.552Z,22.53
2019-06-27T00:45:00.931Z,22.60
2019-06-27T00:47:28.388Z,22.59
2019-06-27T00:49:55.803Z,23.12
2019-06-27T00:52:23.190Z,21.96
2019-06-27T00:54:50.685Z,21.87
2019-06-27T00:57:18.115Z,21.26
2019-06-27T00:59:45.528Z,21.36
2019-06-27T01:02:13.783Z,21.64
2019-06-27T01:04:41.192Z,21.52
2019-06-27T01:07:08.633Z,22.60
2019-06-27T01:09:36.091Z,21.95
2019-06-27T01:12:03.494Z,22.62
2019-06-27T01:14:30.888Z,22.27
2019-06-27T01:16:58.353Z,21.25
2019-06-27T01:19:25.758Z,22.14
2019-06-27T01:21:53.195Z,21.44
2019-06-27T01:24:20.686Z,21.63
2019-06-27T01:26:48.157Z,21.42
2019-06-27T01:29:15.596Z,21.41
2019-06-27T01:31:43.025Z,20.50
2019-06-27T01:34:10.423Z,20.19
2019-06-27T01:36:37.858Z,20.23
2019-06-27T01:39:05.491Z,20.25
2019-06-27T01:41:32.948Z,20.49
2019-06-27T01:44:00.368Z,21.47
2019-06-27T01:46:27.809Z,21.17
2019-06-27T01:48:55.220Z,21.06
2019-06-27T01:51:22.630Z,20.31
2019-06-27T01:53:50.066Z,20.05
2019-06-27T01:56:17.505Z,20.29
2019-06-27T01:58:44.888Z,20.80
2019-06-27T02:01:12.469Z,20.34
2019-06-27T02:03:39.878Z,20.18
2019-06-27T02:06:07.289Z,21.37
2019-06-27T02:08:34.708Z,20.96
2019-06-27T02:11:02.160Z,21.11
2019-06-27T02:13:29.596Z,21.29
2019-06-27T02:15:57.070Z,21.08
2019-06-27T02:18:24.483Z,20.35
2019-06-27T02:20:51.846Z,20.28
2019-06-27T02:23:19.322Z,20.04
2019-06-27T02:25:46.731Z,19.77
2019-06-27T02:28:14.156Z,20.43
2019-06-27T02:30:42.663Z,20.26
2019-06-27T02:33:10.193Z,20.90
2019-06-27T02:35:37.839Z,21.15
2019-06-27T02:38:05.340Z,21.12
2019-06-27T02:40:32.871Z,20.08
2019-06-27T02:43:00.309Z,19.97
2019-06-27T02:45:27.771Z,19.63
2019-06-27T02:47:55.152Z,19.32
2019-06-27T02:50:22.593Z,19.85
2019-06-27T02:52:50.083Z,20.36
2019-06-27T02:55:17.693Z,20.42
2019-06-27T02:57:45.099Z,20.11
2019-06-27T03:00:12.529Z,19.40
2019-06-27T03:02:39.910Z,20.47
2019-06-27T03:05:07.623Z,20.09
2019-06-27T03:07:35.149Z,19.50
2019-06-27T03:10:02.674Z,19.35
2019-06-27T03:12:30.250Z,19.48
2019-06-27T03:14:57.685Z,19.47
2019-06-27T03:17:25.185Z,19.39
2019-06-27T03:19:52.668Z,19.50
2019-06-27T03:22:20.089Z,18.98
2019-06-27T03:24:47.528Z,19.13
2019-06-27T03:27:14.948Z,19.02
2019-06-27T03:29:42.391Z,20.39
2019-06-27T03:32:09.983Z,19.28
2019-06-27T03:34:37.375Z,19.06
2019-06-27T03:37:04.823Z,20.21
2019-06-27T03:39:32.207Z,20.63
2019-06-27T03:41:59.631Z,20.58
2019-06-27T03:44:27.473Z,20.59
2019-06-27T03:46:54.869Z,20.60
2019-06-27T03:49:22.423Z,20.58
2019-06-27T03:51:49.829Z,20.38
2019-06-27T03:54:17.235Z,20.30
2019-06-27T03:56:44.675Z,19.64
2019-06-27T03:59:13.884Z,20.11
2019-06-27T04:01:41.530Z,20.56
2019-06-27T04:04:08.908Z,20.33
2019-06-27T04:06:36.367Z,19.77
2019-06-27T04:09:04.414Z,19.72
2019-06-27T04:11:32.071Z,20.06
2019-06-27T04:13:59.607Z,20.39
2019-06-27T04:16:26.996Z,20.76
2019-06-27T04:18:54.395Z,19.71
2019-06-27T04:21:21.853Z,20.30
2019-06-27T04:23:49.269Z,20.62
2019-06-27T04:26:16.798Z,20.58
2019-06-27T04:28:44.268Z,21.12
2019-06-27T04:31:11.677Z,20.84
2019-06-27T04:33:39.068Z,21.02
2019-06-27T04:36:06.476Z,21.19
2019-06-27T04:38:33.886Z,20.83
2019-06-27T04:41:01.269Z,20.67
2019-06-27T04:43:28.711Z,20.64
2019-06-27T04:45:56.149Z,21.06
2019-06-27T04:48:23.603Z,20.39
2019-06-27T04:50:51.004Z,20.99
2019-06-27T04:53:18.388Z,20.16
2019-06-27T04:55:45.809Z,20.85
2019-06-27T04:58:13.276Z,21.04
2019-06-27T05:00:40.671Z,21.22
2019-06-27T05:03:08.129Z,21.32
2019-06-27T05:05:35.670Z,21.04
2019-06-27T05:08:03.135Z,21.20
2019-06-27T05:10:30.532Z,20.95
2019-06-27T05:12:57.962Z,20.73
2019-06-27T05:15:25.391Z,20.73
2019-06-27T05:17:52.868Z,20.92
2019-06-27T05:20:20.393Z,20.62
2019-06-27T05:22:47.771Z,20.45
2019-06-27T05:25:15.255Z,20.54
2019-06-27T05:27:42.751Z,20.35
2019-06-27T05:30:10.812Z,20.46
2019-06-27T05:32:38.329Z,20.70
2019-06-27T05:35:05.914Z,20.60
2019-06-27T05:37:33.295Z,20.97
2019-06-27T05:40:00.729Z,21.07
2019-06-27T05:42:28.208Z,21.53
2019-06-27T05:44:55.644Z,21.36
2019-06-27T05:47:23.023Z,21.42
2019-06-27T05:49:50.508Z,21.31
2019-06-27T05:52:17.929Z,21.30
2019-06-27T05:54:45.315Z,21.44
2019-06-27T05:57:12.804Z,21.67
2019-06-27T05:59:40.196Z,21.66
2019-06-27T06:02:07.629Z,21.63
2019-06-27T06:04:35.095Z,21.58
2019-06-27T06:07:02.501Z,21.75
2019-06-27T06:09:32.894Z,21.87
2019-06-27T06:11:59.309Z,21.95
2019-06-27T06:14:26.691Z,21.97
2019-06-27T06:16:54.077Z,22.18
2019-06-27T06:19:21.528Z,22.31
2019-06-27T06:21:48.908Z,22.22
2019-06-27T06:24:16.335Z,22.27
2019-06-27T06:26:43.779Z,22.42
2019-06-27T06:29:11.192Z,22.60
2019-06-27T06:31:38.751Z,22.72
2019-06-27T06:34:06.487Z,22.61
2019-06-27T06:36:33.862Z,22.75
2019-06-27T06:39:01.266Z,22.92
2019-06-27T06:41:28.773Z,23.01
2019-06-27T06:43:56.252Z,23.08
2019-06-27T06:46:23.739Z,23.78
2019-06-27T06:48:51.261Z,23.59
2019-06-27T06:51:18.718Z,24.23
2019-06-27T06:53:46.232Z,24.44
2019-06-27T06:56:13.710Z,24.84
2019-06-27T06:58:41.161Z,24.73
2019-06-27T07:01:08.607Z,25.05
2019-06-27T07:03:36.140Z,25.19
2019-06-27T07:06:03.554Z,24.96
2019-06-27T07:08:30.990Z,25.10
2019-06-27T07:10:58.442Z,25.52
2019-06-27T07:13:25.850Z,25.59
2019-06-27T07:15:53.271Z,25.65
2019-06-27T07:18:20.768Z,25.63
2019-06-27T07:20:48.214Z,25.76
2019-06-27T07:23:15.611Z,25.77
2019-06-27T07:25:43.087Z,25.95
2019-06-27T07:28:10.471Z,25.83
2019-06-27T07:30:37.989Z,26.10
2019-06-27T07:33:05.427Z,26.10
2019-06-27T07:35:32.830Z,25.71
2019-06-27T07:38:00.348Z,25.95
2019-06-27T07:40:27.827Z,26.13
2019-06-27T07:42:55.256Z,26.53
2019-06-27T07:45:22.770Z,26.44
2019-06-27T07:47:50.338Z,26.42
2019-06-27T07:50:17.890Z,26.56
2019-06-27T07:52:45.488Z,26.31
2019-06-27T07:55:13.210Z,26.75
2019-06-27T07:57:40.830Z,26.90
2019-06-27T08:00:08.975Z,26.85
2019-06-27T08:02:36.411Z,26.97
2019-06-27T08:05:04.707Z,26.90
2019-06-27T08:07:32.125Z,27.09
2019-06-27T08:09:59.589Z,27.48
2019-06-27T08:12:27.027Z,27.49
2019-06-27T08:14:54.435Z,27.62
2019-06-27T08:17:21.866Z,27.71
2019-06-27T08:19:49.269Z,27.87
2019-06-27T08:22:16.689Z,27.54
2019-06-27T08:24:44.135Z,28.12
2019-06-27T08:27:11.548Z,28.08
2019-06-27T08:29:38.958Z,28.36
2019-06-27T08:32:06.415Z,28.36
2019-06-27T08:34:34.012Z,28.05
2019-06-27T08:37:01.491Z,28.45
2019-06-27T08:39:28.984Z,28.41
2019-06-27T08:41:56.588Z,28.34
2019-06-27T08:44:24.111Z,28.75
2019-06-27T08:46:51.628Z,28.81
2019-06-27T08:49:19.053Z,28.65
2019-06-27T08:51:46.428Z,28.87
2019-06-27T08:54:13.879Z,28.99
2019-06-27T08:56:41.305Z,28.85
2019-06-27T08:59:08.739Z,28.86
2019-06-27T09:01:36.292Z,29.16
2019-06-27T09:04:03.851Z,29.09
2019-06-27T09:06:31.294Z,29.42
2019-06-27T09:08:58.721Z,29.32
2019-06-27T09:11:26.476Z,29.55
2019-06-27T09:13:53.874Z,29.86
2019-06-27T09:16:21.370Z,29.92
2019-06-27T09:18:48.791Z,30.17
2019-06-27T09:21:16.239Z,30.24
2019-06-27T09:23:43.784Z,30.23
2019-06-27T09:26:11.239Z,30.09
2019-06-27T09:28:38.723Z,30.26
2019-06-27T09:31:06.258Z,29.91
2019-06-27T09:33:33.706Z,30.38
2019-06-27T09:36:01.233Z,30.91
2019-06-27T09:38:28.696Z,30.00
2019-06-27T09:40:56.086Z,30.96
2019-06-27T09:43:23.680Z,31.01
2019-06-27T09:45:51.177Z,30.91
2019-06-27T09:48:18.656Z,31.30
2019-06-27T09:50:46.238Z,31.24
2019-06-27T09:53:13.771Z,30.83
2019-06-27T09:55:41.234Z,31.24
2019-06-27T09:58:08.664Z,30.90
2019-06-27T10:00:36.146Z,31.52
2019-06-27T10:03:03.734Z,31.33
2019-06-27T10:05:31.154Z,30.88
2019-06-27T10:07:58.655Z,31.41
2019-06-27T10:10:26.170Z,31.33
2019-06-27T10:12:53.631Z,31.39
2019-06-27T10:15:21.249Z,31.54
2019-06-27T10:17:48.841Z,31.80
2019-06-27T10:20:16.371Z,31.94
2019-06-27T10:22:44.032Z,32.12
2019-06-27T10:25:11.966Z,31.90
2019-06-27T10:27:39.427Z,31.97
2019-06-27T10:30:07.908Z,32.00
2019-06-27T10:32:35.350Z,32.20
2019-06-27T10:35:02.883Z,32.22
2019-06-27T10:37:30.371Z,32.48
2019-06-27T10:39:57.856Z,33.13
2019-06-27T10:42:25.289Z,32.44
2019-06-27T10:44:52.801Z,32.88
2019-06-27T10:47:20.256Z,32.21
2019-06-27T10:49:47.667Z,32.76
2019-06-27T10:52:15.193Z,32.73
2019-06-27T10:54:42.642Z,32.74
2019-06-27T10:57:10.041Z,32.70
2019-06-27T10:59:37.562Z,32.59
2019-06-27T11:02:05.253Z,32.62
2019-06-27T11:04:32.717Z,32.83
2019-06-27T11:07:00.169Z,33.52
2019-06-27T11:09:27.633Z,33.51
2019-06-27T11:11:55.049Z,33.67
2019-06-27T11:14:22.519Z,33.33
2019-06-27T11:16:49.913Z,33.51
2019-06-27T11:19:17.347Z,33.38
2019-06-27T11:21:44.859Z,33.34
2019-06-27T11:24:12.304Z,33.14
2019-06-27T11:26:39.750Z,33.14
2019-06-27T11:29:07.428Z,33.30
2019-06-27T11:31:35.036Z,33.41
2019-06-27T11:34:02.471Z,33.05
2019-06-27T11:36:29.955Z,32.97
2019-06-27T11:38:57.422Z,33.23
2019-06-27T11:41:24.931Z,33.34
2019-06-27T11:43:52.439Z,33.35
2019-06-27T11:46:19.912Z,34.02
2019-06-27T11:48:47.332Z,34.05
2019-06-27T11:51:15.176Z,34.06
2019-06-27T11:53:42.637Z,33.91
2019-06-27T11:56:10.133Z,34.24
2019-06-27T11:58:37.729Z,34.34
2019-06-27T12:01:05.118Z,34.39
2019-06-27T12:03:48.221Z,34.21
2019-06-27T12:06:02.435Z,33.89
2019-06-27T12:08:30.041Z,33.98
2019-06-27T12:10:58.174Z,34.53
2019-06-27T12:13:25.606Z,34.95
2019-06-27T12:15:53.011Z,34.66
2019-06-27T12:18:23.493Z,34.73
2019-06-27T12:20:51.000Z,35.12
2019-06-27T12:23:19.244Z,35.11
2019-06-27T12:25:49.748Z,35.15
2019-06-27T12:28:17.229Z,34.93
2019-06-27T12:30:44.799Z,35.51
2019-06-27T12:33:12.313Z,36.16
2019-06-27T12:35:39.828Z,35.48
2019-06-27T12:38:07.536Z,35.33
2019-06-27T12:40:35.090Z,34.86
2019-06-27T12:43:02.637Z,35.34
2019-06-27T12:45:30.312Z,35.52
2019-06-27T12:48:06.494Z,35.34
2019-06-27T12:50:29.474Z,35.42
2019-06-27T12:52:57.022Z,35.84
2019-06-27T12:55:24.502Z,35.81
2019-06-27T12:57:52.016Z,36.23
2019-06-27T13:00:19.640Z,36.36
2019-06-27T13:02:47.124Z,35.80
2019-06-27T13:05:14.716Z,36.30
2019-06-27T13:07:42.177Z,36.66
2019-06-27T13:10:09.996Z,36.63
2019-06-27T13:12:37.750Z,36.61
2019-06-27T13:15:13.616Z,36.16
2019-06-27T13:17:41.511Z,36.00
2019-06-27T13:20:09.061Z,36.30
2019-06-27T13:22:38.223Z,36.48
2019-06-27T13:25:05.908Z,36.22
2019-06-27T13:27:33.538Z,36.41
2019-06-27T13:30:01.070Z,36.97
2019-06-27T13:32:28.548Z,36.60
2019-06-27T13:34:56.172Z,36.21
2019-06-27T13:37:23.678Z,36.45
2019-06-27T13:39:51.205Z,36.54
2019-06-27T13:42:18.839Z,36.55
2019-06-27T13:44:46.708Z,36.69
2019-06-27T13:47:14.303Z,36.86
2019-06-27T13:49:45.030Z,37.00
2019-06-27T13:52:11.044Z,36.82
2019-06-27T13:54:38.516Z,36.69
2019-06-27T13:57:06.065Z,36.35
2019-06-27T13:59:33.474Z,36.62
2019-06-27T14:02:00.941Z,36.55
2019-06-27T14:04:28.370Z,36.82
2019-06-27T14:06:55.962Z,36.92
2019-06-27T14:09:24.009Z,37.26
2019-06-27T14:11:51.687Z,37.25
2019-06-27T14:14:19.245Z,36.70
2019-06-27T14:16:46.746Z,34.90
2019-06-27T14:19:14.154Z,35.79
2019-06-27T14:21:41.580Z,35.77
2019-06-27T14:24:09.049Z,36.01
2019-06-27T14:26:38.388Z,35.94
2019-06-27T14:29:05.883Z,35.70
2019-06-27T14:31:33.406Z,37.09
2019-06-27T14:34:00.862Z,37.35
2019-06-27T14:36:28.264Z,36.85
2019-06-27T14:38:55.709Z,36.93
2019-06-27T14:41:23.225Z,36.48
2019-06-27T14:43:50.989Z,36.65
2019-06-27T14:46:18.568Z,36.90
2019-06-27T14:48:46.050Z,36.34
2019-06-27T14:51:13.594Z,37.43
2019-06-27T14:53:41.160Z,37.50
2019-06-27T14:56:08.725Z,35.79
2019-06-27T14:58:36.453Z,36.83
2019-06-27T15:01:08.508Z,35.16
2019-06-27T15:03:33.576Z,35.63
2019-06-27T15:06:01.196Z,36.81
2019-06-27T15:08:28.838Z,37.18
2019-06-27T15:10:56.436Z,36.72
2019-06-27T15:13:24.287Z,37.28
2019-06-27T15:15:51.806Z,37.02
2019-06-27T15:18:19.335Z,36.52
2019-06-27T15:20:47.626Z,37.11
2019-06-27T15:23:15.283Z,36.17
2019-06-27T15:25:42.733Z,36.21
2019-06-27T15:28:10.313Z,37.28
2019-06-27T15:30:38.131Z,36.13
2019-06-27T15:33:05.886Z,35.57
2019-06-27T15:35:37.731Z,35.33
2019-06-27T15:38:02.861Z,35.45
2019-06-27T15:40:30.459Z,35.37
2019-06-27T15:42:59.313Z,35.05
2019-06-27T15:45:28.201Z,36.22
2019-06-27T15:47:55.766Z,35.64
2019-06-27T15:50:23.326Z,35.84
2019-06-27T15:52:50.829Z,35.59
2019-06-27T15:55:18.512Z,35.71
2019-06-27T15:57:45.939Z,35.92
2019-06-27T16:00:14.650Z,35.40
2019-06-27T16:02:42.303Z,37.15
2019-06-27T16:05:10.702Z,37.09
2019-06-27T16:07:38.577Z,36.17
2019-06-27T16:10:06.371Z,35.57
2019-06-27T16:12:33.947Z,36.03
2019-06-27T16:15:01.457Z,35.90
2019-06-27T16:17:29.439Z,36.68
2019-06-27T16:19:56.848Z,36.57
2019-06-27T16:22:24.336Z,36.08
2019-06-27T16:24:53.007Z,35.00
2019-06-27T16:27:20.446Z,35.30
2019-06-27T16:29:47.923Z,35.09
2019-06-27T16:32:15.570Z,34.61
2019-06-27T16:34:43.077Z,34.67
2019-06-27T16:37:10.642Z,34.33
2019-06-27T16:39:40.353Z,34.41
2019-06-27T16:42:07.809Z,34.68
2019-06-27T16:44:35.362Z,34.95
2019-06-27T16:47:02.837Z,34.40
2019-06-27T16:49:30.526Z,33.89
2019-06-27T16:51:58.130Z,34.08
2019-06-27T16:54:25.656Z,33.49
2019-06-27T16:56:53.291Z,32.40
2019-06-27T16:59:20.839Z,33.17
2019-06-27T17:01:48.430Z,33.56
2019-06-27T17:04:15.865Z,33.13
2019-06-27T17:06:43.376Z,33.06
2019-06-27T17:09:10.868Z,32.47
2019-06-27T17:11:38.352Z,31.97
2019-06-27T17:14:05.963Z,32.48
2019-06-27T17:16:33.427Z,32.30
2019-06-27T17:19:00.899Z,32.10
2019-06-27T17:21:28.419Z,31.96
2019-06-27T17:23:55.849Z,31.52
2019-06-27T17:26:23.488Z,32.23
2019-06-27T17:28:51.102Z,31.50
2019-06-27T17:31:18.686Z,32.06
2019-06-27T17:33:46.167Z,32.10
2019-06-27T17:36:13.674Z,31.40
2019-06-27T17:38:41.113Z,31.19
2019-06-27T17:41:08.640Z,31.79
2019-06-27T17:43:36.186Z,30.94
2019-06-27T17:46:03.630Z,31.58
2019-06-27T17:48:31.066Z,31.35
2019-06-27T17:50:59.221Z,31.05
2019-06-27T17:53:26.721Z,31.34
2019-06-27T17:55:54.205Z,31.20
2019-06-27T17:58:21.842Z,31.64
2019-06-27T18:00:49.433Z,31.13
2019-06-27T18:03:17.644Z,31.36
2019-06-27T18:05:45.166Z,30.94
2019-06-27T18:08:12.636Z,30.99
2019-06-27T18:10:40.168Z,30.87
2019-06-27T18:13:07.643Z,30.49
2019-06-27T18:15:35.107Z,30.86
2019-06-27T18:18:02.699Z,30.95
2019-06-27T18:20:30.161Z,30.84
2019-06-27T18:22:57.583Z,30.88
2019-06-27T18:25:25.017Z,30.85
2019-06-27T18:27:52.518Z,30.37
2019-06-27T18:30:20.757Z,30.52
2019-06-27T18:32:48.220Z,30.80
2019-06-27T18:35:16.560Z,30.38
2019-06-27T18:37:43.978Z,29.48
2019-06-27T18:40:11.635Z,30.14
2019-06-27T18:42:39.103Z,30.22
2019-06-27T18:45:06.568Z,30.03
2019-06-27T18:47:33.931Z,29.17
2019-06-27T18:50:01.502Z,29.31
2019-06-27T18:52:28.963Z,29.36
2019-06-27T18:54:56.401Z,29.51
2019-06-27T18:57:23.921Z,29.01
2019-06-27T18:59:53.704Z,28.08
2019-06-27T19:02:20.864Z,28.05
2019-06-27T19:04:48.356Z,27.92
2019-06-27T19:07:15.774Z,28.47
2019-06-27T19:09:43.206Z,28.04
2019-06-27T19:12:10.719Z,28.50
2019-06-27T19:14:38.260Z,27.80
2019-06-27T19:17:06.260Z,29.02
2019-06-27T19:19:36.187Z,28.61
2019-06-27T19:22:23.249Z,27.79
2019-06-27T19:25:00.048Z,28.20
2019-06-27T19:27:27.601Z,27.81
2019-06-27T19:29:55.102Z,28.36
2019-06-27T19:32:22.561Z,28.05
2019-06-27T19:34:50.000Z,27.87
2019-06-27T19:37:17.446Z,28.20
2019-06-27T19:39:44.947Z,28.63
2019-06-27T19:42:12.453Z,28.67
2019-06-27T19:44:39.941Z,27.90
2019-06-27T19:47:07.448Z,27.84
2019-06-27T19:49:34.925Z,27.83
2019-06-27T19:52:02.363Z,27.75
2019-06-27T19:54:29.902Z,27.80
2019-06-27T19:56:57.485Z,27.88
2019-06-27T19:59:25.398Z,27.88
2019-06-27T20:01:53.100Z,27.65
2019-06-27T20:04:20.482Z,27.59
2019-06-27T20:06:47.937Z,28.13
2019-06-27T20:09:15.474Z,28.13
2019-06-27T20:11:42.979Z,27.79
2019-06-27T20:14:10.391Z,27.68
2019-06-27T20:16:37.876Z,27.87
2019-06-27T20:19:06.125Z,28.22
2019-06-27T20:21:33.711Z,28.34
2019-06-27T20:24:01.241Z,27.83
2019-06-27T20:26:28.769Z,27.87
2019-06-27T20:28:56.167Z,27.94
2019-06-27T20:31:23.620Z,27.63
2019-06-27T20:33:51.214Z,27.78
2019-06-27T20:36:18.674Z,28.00
2019-06-27T20:38:46.153Z,26.90
2019-06-27T20:41:13.587Z,26.89
2019-06-27T20:43:41.013Z,27.14
2019-06-27T20:46:08.518Z,27.47
2019-06-27T20:48:36.048Z,26.99
2019-06-27T20:51:03.563Z,27.28
2019-06-27T20:53:31.160Z,26.83
2019-06-27T20:55:58.563Z,27.07
2019-06-27T20:58:25.991Z,27.67
2019-06-27T21:00:53.506Z,27.77
2019-06-27T21:03:20.923Z,27.21
2019-06-27T21:05:48.362Z,27.51
2019-06-27T21:08:15.846Z,27.23
2019-06-27T21:10:43.288Z,27.13
2019-06-27T21:13:10.765Z,27.06
2019-06-27T21:15:38.219Z,27.33
2019-06-27T21:18:05.611Z,27.39
2019-06-27T21:20:33.035Z,27.13
2019-06-27T21:23:00.517Z,27.00
2019-06-27T21:25:28.134Z,27.03
2019-06-27T21:27:55.643Z,27.23
2019-06-27T21:30:23.199Z,27.18
2019-06-27T21:32:50.620Z,26.95
2019-06-27T21:35:18.087Z,26.91
2019-06-27T21:37:45.642Z,26.87
2019-06-27T21:40:13.280Z,26.64
2019-06-27T21:42:40.725Z,26.80
2019-06-27T21:45:08.151Z,26.78
2019-06-27T21:47:35.630Z,26.64
2019-06-27T21:50:03.227Z,26.63
2019-06-27T21:52:30.752Z,26.63
2019-06-27T21:54:58.172Z,26.46
2019-06-27T21:57:25.696Z,26.41
2019-06-27T21:59:53.138Z,26.88
2019-06-27T22:02:20.747Z,26.31
2019-06-27T22:04:48.185Z,26.60
2019-06-27T22:07:15.663Z,26.36
2019-06-27T22:09:43.088Z,26.50
2019-06-27T22:12:10.674Z,25.95
2019-06-27T22:14:38.200Z,26.26
2019-06-27T22:17:05.643Z,26.24
2019-06-27T22:19:33.062Z,26.44
2019-06-27T22:22:00.580Z,26.10
2019-06-27T22:24:27.999Z,26.00
2019-06-27T22:26:55.439Z,26.04
2019-06-27T22:29:22.960Z,26.21
2019-06-27T22:31:50.404Z,26.06
2019-06-27T22:34:17.797Z,26.28
2019-06-27T22:36:45.292Z,26.20
2019-06-27T22:39:40.417Z,26.20
2019-06-27T22:42:18.383Z,26.33
2019-06-27T22:45:03.841Z,26.33
2019-06-27T22:47:49.451Z,26.53
2019-06-27T22:50:52.973Z,26.35
2019-06-27T22:53:22.624Z,26.18
2019-06-27T22:55:50.187Z,26.17
2019-06-27T22:58:17.612Z,25.91
2019-06-27T23:00:45.042Z,26.02
2019-06-27T23:03:12.572Z,25.69
2019-06-27T23:05:39.988Z,25.96
2019-06-27T23:08:07.464Z,25.82
2019-06-27T23:10:34.883Z,26.09
2019-06-27T23:13:02.327Z,26.11
2019-06-27T23:15:29.920Z,25.47
2019-06-27T23:17:57.319Z,25.68
2019-06-27T23:20:24.720Z,25.68
2019-06-27T23:22:52.215Z,25.73
2019-06-27T23:25:19.723Z,26.03
2019-06-27T23:27:47.171Z,25.61
2019-06-27T23:30:14.761Z,25.82
2019-06-27T23:32:42.195Z,25.82
2019-06-27T23:35:09.721Z,25.34
2019-06-27T23:37:37.223Z,25.55
2019-06-27T23:40:14.109Z,25.68
2019-06-27T23:42:34.653Z,25.68
2019-06-27T23:45:02.160Z,25.46
2019-06-27T23:47:29.587Z,25.71
2019-06-27T23:49:56.982Z,25.71
2019-06-27T23:52:24.498Z,25.68
2019-06-27T23:54:51.955Z,25.61
2019-06-27T23:57:19.363Z,25.56
2019-06-27T23:59:46.841Z,25.52
